createdAt,value
2022-10-18T10:26:24.233Z,49.73
2022-10-18T10:28:52.226Z,49.83
2022-10-18T10:31:26.955Z,49.77
2022-10-18T10:34:00.113Z,49.76
2022-10-18T10:36:27.973Z,49.50
2022-10-18T10:39:16.239Z,49.77
2022-10-18T10:41:46.576Z,51.11
2022-10-18T10:44:16.718Z,52.19
2022-10-18T10:46:44.641Z,51.70
2022-10-18T10:52:25.864Z,50.51
2022-10-18T10:54:55.790Z,49.49
2022-10-18T10:57:34.759Z,48.43
2022-10-18T11:00:02.819Z,47.85
2022-10-18T11:02:32.168Z,47.76
2022-10-18T19:16:27.069Z,56.99
2022-10-18T19:18:57.504Z,56.72
2022-10-18T19:21:25.902Z,56.62
2022-10-18T19:23:54.317Z,56.59
2022-10-18T19:26:32.022Z,56.94
2022-10-18T19:29:04.685Z,57.00
2022-10-18T19:31:35.015Z,57.16
2022-10-18T19:34:03.519Z,57.00
2022-10-18T19:36:31.375Z,56.87
2022-10-18T19:38:59.280Z,57.07
2022-10-18T19:41:28.761Z,56.97
2022-10-18T19:43:56.867Z,57.30
2022-10-18T19:46:24.771Z,57.28
2022-10-18T19:48:54.325Z,57.28
2022-10-18T19:51:25.521Z,57.11
2022-10-18T19:53:55.787Z,57.44
2022-10-18T19:56:24.274Z,57.30
2022-10-18T19:58:52.121Z,57.37
2022-10-18T20:01:20.565Z,57.39
2022-10-18T20:03:48.514Z,57.34
2022-10-18T20:06:17.774Z,57.39
2022-10-18T20:08:45.764Z,57.65
2022-10-18T20:11:14.755Z,57.37
2022-10-18T20:13:42.690Z,57.37
2022-10-18T20:16:11.529Z,57.29
2022-10-18T20:18:39.458Z,57.57
2022-10-18T20:21:08.030Z,57.47
2022-10-18T20:23:38.046Z,57.49
2022-10-18T20:26:07.072Z,57.56
2022-10-18T20:28:35.042Z,57.59
2022-10-18T20:31:04.191Z,57.45
2022-10-18T20:33:32.226Z,57.65
2022-10-18T20:36:03.913Z,57.21
2022-10-18T20:38:33.092Z,57.42
2022-10-18T20:41:06.592Z,57.21
2022-10-18T20:43:34.624Z,57.22
2022-10-18T20:46:02.858Z,57.19
2022-10-18T20:48:31.113Z,57.30
2022-10-18T20:50:59.007Z,57.13
2022-10-18T20:53:26.873Z,56.99
2022-10-18T20:56:03.470Z,57.07
2022-10-18T20:58:32.852Z,57.03
2022-10-18T21:01:06.460Z,57.27
2022-10-18T21:03:34.444Z,57.15
2022-10-18T21:06:02.371Z,57.32
2022-10-18T21:08:30.466Z,57.26
2022-10-18T21:10:58.434Z,57.15
2022-10-18T21:13:26.385Z,57.09
2022-10-18T21:15:58.626Z,56.89
2022-10-18T21:18:26.720Z,57.17
2022-10-18T21:20:54.603Z,57.17
2022-10-18T21:23:22.640Z,57.13
2022-10-18T21:25:50.664Z,57.06
2022-10-18T21:28:18.700Z,56.95
2022-10-18T21:30:46.607Z,57.29
2022-10-18T21:33:15.872Z,57.04
2022-10-18T21:35:43.758Z,57.06
2022-10-18T21:38:11.989Z,57.03
2022-10-18T21:40:44.522Z,56.73
2022-10-18T21:43:12.660Z,57.07
2022-10-18T21:45:40.526Z,57.05
2022-10-18T21:48:08.609Z,56.94
2022-10-18T21:50:37.872Z,57.24
2022-10-18T21:53:05.768Z,57.11
2022-10-18T21:55:33.635Z,57.35
2022-10-18T21:58:01.465Z,57.22
2022-10-18T22:00:29.344Z,57.65
2022-10-18T22:03:07.720Z,57.65
2022-10-18T22:05:36.940Z,57.71
2022-10-18T22:08:04.920Z,57.45
2022-10-18T22:10:32.870Z,57.75
2022-10-18T22:13:00.765Z,57.70
2022-10-18T22:15:28.690Z,57.68
2022-10-18T22:17:56.667Z,57.89
2022-10-18T22:20:24.514Z,57.75
2022-10-18T22:22:55.758Z,57.73
2022-10-18T22:25:23.664Z,57.53
2022-10-18T22:27:51.543Z,57.90
2022-10-18T22:30:19.429Z,57.54
2022-10-18T22:32:47.338Z,57.85
2022-10-18T22:35:15.439Z,57.56
2022-10-18T22:37:43.310Z,57.65
2022-10-18T22:40:13.314Z,57.35
2022-10-18T22:42:41.212Z,57.28
2022-10-18T22:45:10.028Z,57.42
2022-10-18T22:47:38.052Z,57.33
2022-10-18T22:50:06.664Z,57.39
2022-10-18T22:52:34.769Z,57.23
2022-10-18T22:55:02.863Z,57.14
2022-10-18T22:57:32.151Z,57.32
2022-10-18T23:00:00.105Z,57.25
2022-10-18T23:02:27.984Z,57.61
2022-10-18T23:04:55.984Z,57.69
2022-10-18T23:07:23.868Z,58.16
2022-10-18T23:09:51.757Z,58.66
2022-10-18T23:12:20.152Z,58.83
2022-10-18T23:14:49.741Z,59.78
2022-10-18T23:17:17.653Z,60.20
2022-10-18T23:19:45.540Z,60.38
2022-10-18T23:22:14.961Z,60.53
2022-10-18T23:24:44.270Z,60.74
2022-10-18T23:27:12.149Z,60.53
2022-10-18T23:29:40.062Z,60.67
2022-10-18T23:32:09.337Z,60.44
2022-10-18T23:34:37.184Z,60.33
2022-10-18T23:37:05.090Z,60.39
2022-10-18T23:39:32.938Z,60.35
2022-10-18T23:42:00.832Z,60.26
2022-10-18T23:44:28.693Z,60.63
2022-10-18T23:46:56.629Z,60.63
2022-10-18T23:49:25.955Z,60.45
2022-10-18T23:51:53.861Z,60.53
2022-10-18T23:54:21.928Z,60.37
2022-10-18T23:56:49.813Z,60.34
2022-10-18T23:59:17.676Z,60.26
